createdAt,value
2018-03-03T00:01:29.646Z,98560.06
2018-03-03T00:03:57.076Z,98556.59
2018-03-03T00:06:24.495Z,98551.69
2018-03-03T00:08:51.910Z,98545.95
2018-03-03T00:11:19.338Z,98553.47
2018-03-03T00:13:46.754Z,98556.66
2018-03-03T00:16:14.190Z,98557.12
2018-03-03T00:18:41.613Z,98558.15
2018-03-03T00:21:09.019Z,98556.23
2018-03-03T00:23:36.455Z,98553.77
2018-03-03T00:26:03.917Z,98554.83
2018-03-03T00:28:31.347Z,98548.34
2018-03-03T00:30:58.762Z,98547.23
2018-03-03T00:33:26.178Z,98551.33
2018-03-03T00:35:53.599Z,98547.94
2018-03-03T00:38:21.013Z,98545.69
2018-03-03T00:40:48.454Z,98548.30
2018-03-03T00:43:15.881Z,98540.44
2018-03-03T00:45:43.294Z,98539.66
2018-03-03T00:48:10.719Z,98537.94
2018-03-03T00:50:38.137Z,98549.88
2018-03-03T00:53:05.568Z,98545.52
2018-03-03T00:55:32.985Z,98550.12
2018-03-03T00:58:00.406Z,98548.97
2018-03-03T01:00:27.825Z,98538.63
2018-03-03T01:02:55.238Z,98536.22
2018-03-03T01:05:22.678Z,98529.02
2018-03-03T01:07:50.090Z,98524.00
2018-03-03T01:10:17.518Z,98527.17
2018-03-03T01:12:44.938Z,98528.89
2018-03-03T01:15:12.367Z,98520.90
2018-03-03T01:17:39.798Z,98515.47
2018-03-03T01:20:07.219Z,98520.54
2018-03-03T01:22:34.651Z,98517.44
2018-03-03T01:25:02.082Z,98520.38
2018-03-03T01:27:29.512Z,98514.44
2018-03-03T01:29:56.950Z,98509.00
2018-03-03T01:32:24.371Z,98508.36
2018-03-03T01:34:51.785Z,98506.12
2018-03-03T01:37:19.211Z,98511.91
2018-03-03T01:39:46.693Z,98502.17
2018-03-03T01:42:14.107Z,98503.81
2018-03-03T01:44:41.526Z,98492.21
2018-03-03T01:47:08.970Z,98494.24
2018-03-03T01:49:36.391Z,98488.24
2018-03-03T01:52:03.801Z,98485.48
2018-03-03T01:54:31.221Z,98480.66
2018-03-03T01:56:58.630Z,98475.42
2018-03-03T01:59:26.050Z,98472.69
2018-03-03T02:01:53.471Z,98473.68
2018-03-03T02:04:20.885Z,98479.13
2018-03-03T02:06:48.314Z,98473.36
2018-03-03T02:09:15.731Z,98478.06
2018-03-03T02:11:43.208Z,98477.97
2018-03-03T02:14:10.622Z,98475.88
2018-03-03T02:16:38.041Z,98468.36
2018-03-03T02:19:05.470Z,98475.13
2018-03-03T02:21:32.877Z,98472.77
2018-03-03T02:24:00.295Z,98477.50
2018-03-03T02:26:27.718Z,98477.76
2018-03-03T02:28:55.134Z,98472.30
2018-03-03T02:31:22.570Z,98471.69
2018-03-03T02:33:49.989Z,98468.98
2018-03-03T02:36:17.408Z,98456.11
2018-03-03T02:38:44.832Z,98461.96
2018-03-03T02:41:12.245Z,98457.77
2018-03-03T02:43:39.683Z,98455.49
2018-03-03T02:46:07.098Z,98449.74
2018-03-03T02:48:34.511Z,98449.77
2018-03-03T02:51:01.953Z,98447.61
2018-03-03T02:53:29.357Z,98446.41
2018-03-03T02:55:56.782Z,98444.78
2018-03-03T02:58:24.209Z,98434.64
2018-03-03T03:00:51.647Z,98438.98
2018-03-03T03:03:19.070Z,98432.88
2018-03-03T03:05:46.490Z,98426.44
2018-03-03T03:08:13.920Z,98427.94
2018-03-03T03:10:41.354Z,98424.16
2018-03-03T03:13:08.773Z,98421.75
2018-03-03T03:15:36.202Z,98415.69
2018-03-03T03:18:03.618Z,98404.68
2018-03-03T03:20:31.057Z,98403.66
2018-03-03T03:22:58.490Z,98387.97
2018-03-03T03:25:25.905Z,98387.38
2018-03-03T03:27:53.326Z,98377.03
2018-03-03T03:30:20.748Z,98380.11
2018-03-03T03:32:48.170Z,98379.73
2018-03-03T03:35:15.588Z,98385.30
2018-03-03T03:37:43.018Z,98390.13
2018-03-03T03:40:10.445Z,98382.77
2018-03-03T03:42:37.858Z,98383.45
2018-03-03T03:45:05.290Z,98385.28
2018-03-03T03:47:32.713Z,98385.38
2018-03-03T03:50:00.134Z,98382.70
2018-03-03T03:52:27.551Z,98378.03
2018-03-03T03:54:54.994Z,98371.66
2018-03-03T03:57:22.409Z,98374.96
2018-03-03T03:59:49.826Z,98385.59
2018-03-03T04:02:17.250Z,98378.44
2018-03-03T04:04:44.668Z,98366.73
2018-03-03T04:07:12.094Z,98367.39
2018-03-03T04:09:39.510Z,98367.77
2018-03-03T04:12:06.948Z,98371.38
2018-03-03T04:14:34.364Z,98368.42
2018-03-03T04:17:01.774Z,98365.05
2018-03-03T04:19:29.197Z,98360.92
2018-03-03T04:21:56.621Z,98356.89
2018-03-03T04:24:24.050Z,98361.81
2018-03-03T04:26:51.482Z,98363.28
2018-03-03T04:29:18.913Z,98362.53
2018-03-03T04:31:46.349Z,98354.41
2018-03-03T04:34:13.760Z,98356.23
2018-03-03T04:36:41.182Z,98354.61
2018-03-03T04:39:08.593Z,98350.52
2018-03-03T04:41:36.023Z,98353.54
2018-03-03T04:44:03.430Z,98346.55
2018-03-03T04:46:30.845Z,98349.23
2018-03-03T04:48:58.265Z,98344.41
2018-03-03T04:51:25.686Z,98348.42
2018-03-03T04:53:53.115Z,98346.83
2018-03-03T04:56:20.541Z,98349.17
2018-03-03T05:02:06.525Z,98343.53
2018-03-03T05:07:35.689Z,98334.13
2018-03-03T05:10:03.143Z,98338.69
2018-03-03T05:12:46.214Z,98341.75
2018-03-03T05:15:19.125Z,98338.47
2018-03-03T05:17:52.081Z,98332.52
2018-03-03T05:20:24.946Z,98337.23
2018-03-03T05:22:57.858Z,98339.62
2018-03-03T05:28:44.385Z,98338.70
2018-03-03T05:31:17.486Z,98333.23
2018-03-03T05:33:50.366Z,98335.62
2018-03-03T05:36:23.321Z,98334.58
2018-03-03T05:38:56.246Z,98326.83
2018-03-03T05:41:29.400Z,98323.33
2018-03-03T05:43:58.747Z,98322.41
2018-03-03T05:49:37.469Z,98323.56
2018-03-03T05:52:04.911Z,98322.29
2018-03-03T05:54:37.798Z,98325.02
2018-03-03T05:57:11.800Z,98324.70
2018-03-03T05:59:44.745Z,98321.61
2018-03-03T06:02:17.711Z,98331.06
2018-03-03T06:04:45.126Z,98332.03
2018-03-03T06:07:18.151Z,98331.50
2018-03-03T06:09:55.475Z,98337.81
2018-03-03T06:12:22.916Z,98338.45
2018-03-03T06:14:50.337Z,98335.02
2018-03-03T06:17:17.762Z,98341.84
2018-03-03T06:19:45.205Z,98342.70
2018-03-03T06:22:12.610Z,98340.42
2018-03-03T06:24:40.046Z,98344.09
2018-03-03T06:27:07.471Z,98341.09
2018-03-03T06:29:34.898Z,98342.64
2018-03-03T06:32:02.331Z,98337.88
2018-03-03T06:34:29.750Z,98346.55
2018-03-03T06:36:57.171Z,98349.37
2018-03-03T06:39:24.590Z,98347.34
2018-03-03T06:41:52.002Z,98352.34
2018-03-03T06:44:19.459Z,98358.96
2018-03-03T06:46:46.855Z,98358.66
2018-03-03T06:49:14.286Z,98358.61
2018-03-03T06:51:41.701Z,98361.81
2018-03-03T06:54:09.113Z,98359.86
2018-03-03T06:56:36.543Z,98360.11
2018-03-03T06:59:03.961Z,98362.20
2018-03-03T07:01:31.397Z,98362.99
2018-03-03T07:03:58.809Z,98365.25
2018-03-03T07:06:26.225Z,98368.02
2018-03-03T07:08:53.642Z,98371.59
2018-03-03T07:11:21.049Z,98375.28
2018-03-03T07:13:48.480Z,98376.55
2018-03-03T07:16:15.894Z,98367.83
2018-03-03T07:18:43.314Z,98374.94
2018-03-03T07:21:10.754Z,98379.15
2018-03-03T07:23:38.162Z,98376.81
2018-03-03T07:26:05.582Z,98376.34
2018-03-03T07:28:32.997Z,98372.91
2018-03-03T07:31:00.409Z,98374.62
2018-03-03T07:33:27.837Z,98375.33
2018-03-03T07:35:55.247Z,98372.63
2018-03-03T07:38:22.687Z,98372.43
2018-03-03T07:40:50.109Z,98373.98
2018-03-03T07:43:17.518Z,98377.36
2018-03-03T07:45:44.952Z,98385.08
2018-03-03T07:48:12.362Z,98381.31
2018-03-03T07:50:44.146Z,98372.00
2018-03-03T07:53:11.578Z,98374.50
2018-03-03T07:55:38.996Z,98377.41
2018-03-03T07:58:06.410Z,98379.58
2018-03-03T08:00:33.821Z,98377.44
2018-03-03T08:03:01.246Z,98377.73
2018-03-03T08:05:28.676Z,98374.70
2018-03-03T08:07:56.110Z,98376.95
2018-03-03T08:10:23.539Z,98379.69
2018-03-03T08:12:50.985Z,98377.22
2018-03-03T08:15:18.385Z,98379.59
2018-03-03T08:17:45.800Z,98384.48
2018-03-03T08:20:13.218Z,98383.85
2018-03-03T08:22:40.635Z,98389.89
2018-03-03T08:25:08.048Z,98387.39
2018-03-03T08:27:35.487Z,98384.58
2018-03-03T08:30:02.927Z,98385.81
2018-03-03T08:32:30.378Z,98384.02
2018-03-03T08:34:57.815Z,98384.27
2018-03-03T08:37:25.238Z,98386.52
2018-03-03T08:39:52.671Z,98387.17
2018-03-03T08:42:20.087Z,98383.79
2018-03-03T08:44:47.521Z,98383.98
2018-03-03T08:47:14.938Z,98384.44
2018-03-03T08:49:42.358Z,98384.27
2018-03-03T08:52:09.807Z,98380.02
2018-03-03T08:54:37.235Z,98375.20
2018-03-03T08:57:04.659Z,98382.01
2018-03-03T08:59:32.111Z,98377.86
2018-03-03T09:01:59.526Z,98379.56
2018-03-03T09:04:27.001Z,98383.45
2018-03-03T09:06:54.382Z,98385.36
2018-03-03T09:09:21.879Z,98383.95
2018-03-03T09:11:49.299Z,98368.41
2018-03-03T09:14:16.730Z,98373.88
2018-03-03T09:16:44.155Z,98381.54
2018-03-03T09:19:11.574Z,98391.22
2018-03-03T09:21:38.997Z,98391.63
2018-03-03T09:24:06.422Z,98394.67
2018-03-03T09:26:33.842Z,98393.25
2018-03-03T09:29:01.279Z,98393.14
2018-03-03T09:31:28.739Z,98387.99
2018-03-03T09:33:56.630Z,98380.11
2018-03-03T09:36:24.044Z,98387.28
2018-03-03T09:38:51.497Z,98389.83
2018-03-03T09:41:18.914Z,98387.39
2018-03-03T09:43:46.367Z,98393.84
2018-03-03T09:46:13.782Z,98398.67
2018-03-03T09:48:41.206Z,98389.43
2018-03-03T09:51:08.642Z,98398.64
2018-03-03T09:53:36.065Z,98387.88
2018-03-03T09:56:03.491Z,98392.08
2018-03-03T09:58:30.911Z,98393.14
2018-03-03T10:00:58.328Z,98394.83
2018-03-03T10:03:25.850Z,98398.91
2018-03-03T10:05:53.258Z,98408.67
2018-03-03T10:08:20.706Z,98410.25
2018-03-03T10:10:48.122Z,98403.81
2018-03-03T10:13:15.543Z,98410.15
2018-03-03T10:15:42.980Z,98410.95
2018-03-03T10:18:10.410Z,98403.84
2018-03-03T10:20:37.838Z,98399.02
2018-03-03T10:23:05.265Z,98398.75
2018-03-03T10:25:32.692Z,98401.27
2018-03-03T10:28:00.106Z,98400.13
2018-03-03T10:30:27.565Z,98396.34
2018-03-03T10:32:54.969Z,98392.27
2018-03-03T10:35:22.395Z,98394.53
2018-03-03T10:37:49.797Z,98385.28
2018-03-03T10:40:17.214Z,98385.77
2018-03-03T10:42:44.630Z,98386.72
2018-03-03T10:45:12.031Z,98376.95
2018-03-03T10:47:39.453Z,98374.23
2018-03-03T10:50:06.930Z,98380.95
2018-03-03T10:52:34.346Z,98383.01
2018-03-03T10:55:01.760Z,98379.27
2018-03-03T10:57:29.169Z,98379.57
2018-03-03T10:59:56.593Z,98383.70
2018-03-03T11:02:24.006Z,98384.90
2018-03-03T11:04:51.406Z,98393.82
2018-03-03T11:07:18.815Z,98388.72
2018-03-03T11:09:46.221Z,98388.66
2018-03-03T11:12:13.651Z,98390.98
2018-03-03T11:14:41.073Z,98381.09
2018-03-03T11:17:08.477Z,98388.16
2018-03-03T11:19:35.904Z,98384.46
2018-03-03T11:22:03.323Z,98386.91
2018-03-03T11:24:31.672Z,98380.50
2018-03-03T11:26:59.105Z,98380.80
2018-03-03T11:29:27.113Z,98385.52
2018-03-03T11:31:54.532Z,98376.80
2018-03-03T11:34:21.949Z,98377.87
2018-03-03T11:36:49.398Z,98379.64
2018-03-03T11:39:16.803Z,98383.31
2018-03-03T11:41:44.211Z,98384.87
2018-03-03T11:44:11.707Z,98381.88
2018-03-03T11:46:39.111Z,98378.46
2018-03-03T11:49:06.539Z,98384.08
2018-03-03T11:51:33.974Z,98389.06
2018-03-03T11:54:01.396Z,98381.45
2018-03-03T11:56:28.828Z,98385.86
2018-03-03T11:58:56.689Z,98384.11
2018-03-03T12:01:27.401Z,98385.63
2018-03-03T12:03:54.852Z,98384.87
2018-03-03T12:06:22.282Z,98388.22
2018-03-03T12:08:49.723Z,98388.72
2018-03-03T12:11:17.121Z,98384.17
2018-03-03T12:13:44.615Z,98385.50
2018-03-03T12:16:12.396Z,98389.59
2018-03-03T12:18:39.826Z,98386.73
2018-03-03T12:21:07.246Z,98391.27
2018-03-03T12:23:34.686Z,98385.86
2018-03-03T12:26:02.101Z,98386.31
2018-03-03T12:28:29.523Z,98385.89
2018-03-03T12:30:56.941Z,98383.60
2018-03-03T12:33:24.353Z,98384.25
2018-03-03T12:35:51.767Z,98384.92
2018-03-03T12:38:19.197Z,98389.30
2018-03-03T12:40:46.610Z,98389.43
2018-03-03T12:43:14.046Z,98392.49
2018-03-03T12:45:41.462Z,98393.22
2018-03-03T12:48:08.954Z,98397.41
2018-03-03T12:50:36.388Z,98406.77
2018-03-03T12:53:03.971Z,98409.88
2018-03-03T12:55:31.394Z,98407.23
2018-03-03T12:57:58.847Z,98403.98
2018-03-03T13:00:26.266Z,98410.42
2018-03-03T13:02:53.694Z,98403.80
2018-03-03T13:05:21.121Z,98405.48
2018-03-03T13:07:48.539Z,98400.47
2018-03-03T13:10:15.946Z,98397.41
2018-03-03T13:12:43.430Z,98398.95
2018-03-03T13:15:10.826Z,98395.38
2018-03-03T13:17:38.237Z,98398.48
2018-03-03T13:20:05.637Z,98398.56
2018-03-03T13:22:33.054Z,98395.91
2018-03-03T13:25:00.458Z,98393.41
2018-03-03T13:27:27.932Z,98395.19
2018-03-03T13:29:55.285Z,98395.64
2018-03-03T13:32:22.697Z,98394.22
2018-03-03T13:34:50.133Z,98388.51
2018-03-03T13:37:17.552Z,98386.50
2018-03-03T13:39:44.989Z,98387.47
2018-03-03T13:42:12.415Z,98389.19
2018-03-03T13:44:39.830Z,98388.68
2018-03-03T13:47:07.264Z,98379.16
2018-03-03T13:49:34.689Z,98381.99
2018-03-03T13:52:02.119Z,98382.16
2018-03-03T13:54:29.526Z,98382.09
2018-03-03T13:56:56.966Z,98381.97
2018-03-03T13:59:24.382Z,98382.27
2018-03-03T14:01:51.852Z,98382.56
2018-03-03T14:04:19.253Z,98389.12
2018-03-03T14:06:46.707Z,98389.14
2018-03-03T14:09:14.122Z,98390.83
2018-03-03T14:11:41.521Z,98395.02
2018-03-03T14:14:08.966Z,98395.66
2018-03-03T14:16:36.409Z,98392.84
2018-03-03T14:19:03.845Z,98390.83
2018-03-03T14:21:31.274Z,98396.33
2018-03-03T14:23:58.674Z,98395.17
2018-03-03T14:26:26.109Z,98390.79
2018-03-03T14:28:53.517Z,98398.95
2018-03-03T14:31:20.946Z,98396.34
2018-03-03T14:33:48.369Z,98398.18
2018-03-03T14:36:15.798Z,98398.94
2018-03-03T14:38:43.212Z,98405.23
2018-03-03T14:41:10.634Z,98408.73
2018-03-03T14:43:38.102Z,98415.31
2018-03-03T14:46:05.501Z,98411.19
2018-03-03T14:48:32.950Z,98418.03
2018-03-03T14:51:00.399Z,98414.75
2018-03-03T14:53:27.803Z,98408.26
2018-03-03T14:55:56.270Z,98418.03
2018-03-03T14:58:23.750Z,98413.54
2018-03-03T15:00:51.189Z,98412.11
2018-03-03T15:03:19.009Z,98409.18
2018-03-03T15:05:46.434Z,98417.17
2018-03-03T15:08:13.911Z,98417.34
2018-03-03T15:10:41.342Z,98421.98
2018-03-03T15:13:08.766Z,98424.80
2018-03-03T15:15:36.189Z,98419.79
2018-03-03T15:18:03.662Z,98424.19
2018-03-03T15:20:31.103Z,98420.53
2018-03-03T15:22:58.542Z,98425.20
2018-03-03T15:25:25.959Z,98429.73
2018-03-03T15:27:53.369Z,98427.73
2018-03-03T15:30:20.790Z,98428.33
2018-03-03T15:32:48.204Z,98434.09
2018-03-03T15:35:15.603Z,98426.36
2018-03-03T15:37:43.026Z,98432.48
2018-03-03T15:40:10.439Z,98430.14
2018-03-03T15:42:37.862Z,98439.92
2018-03-03T15:45:05.282Z,98436.86
2018-03-03T15:47:32.682Z,98441.77
2018-03-03T15:50:00.100Z,98442.76
2018-03-03T15:52:27.545Z,98449.05
2018-03-03T15:54:54.942Z,98453.37
2018-03-03T15:57:22.349Z,98451.15
2018-03-03T15:59:49.755Z,98452.08
2018-03-03T16:02:17.182Z,98450.69
2018-03-03T16:04:44.581Z,98453.17
2018-03-03T16:07:12.026Z,98452.13
2018-03-03T16:09:39.435Z,98457.69
2018-03-03T16:12:06.843Z,98458.19
2018-03-03T16:14:34.255Z,98461.30
2018-03-03T16:17:01.669Z,98468.16
2018-03-03T16:19:29.086Z,98461.06
2018-03-03T16:21:56.489Z,98463.72
2018-03-03T16:24:24.005Z,98461.49
2018-03-03T16:26:51.434Z,98459.70
2018-03-03T16:29:18.837Z,98458.12
2018-03-03T16:31:46.274Z,98461.44
2018-03-03T16:34:13.693Z,98465.47
2018-03-03T16:36:41.109Z,98468.91
2018-03-03T16:39:08.529Z,98466.63
2018-03-03T16:41:35.946Z,98465.03
2018-03-03T16:44:03.378Z,98469.01
2018-03-03T16:46:30.804Z,98473.31
2018-03-03T16:48:58.283Z,98485.12
2018-03-03T16:51:25.649Z,98486.40
2018-03-03T16:53:53.066Z,98486.27
2018-03-03T16:56:20.485Z,98479.88
2018-03-03T16:58:47.910Z,98483.34
2018-03-03T17:01:15.349Z,98484.65
2018-03-03T17:03:42.786Z,98482.55
2018-03-03T17:06:10.209Z,98482.37
2018-03-03T17:08:37.631Z,98486.42
2018-03-03T17:11:05.051Z,98479.91
2018-03-03T17:13:32.486Z,98484.79
2018-03-03T17:15:59.938Z,98488.73
2018-03-03T17:18:27.354Z,98486.73
2018-03-03T17:20:55.238Z,98493.31
2018-03-03T17:23:22.674Z,98498.28
2018-03-03T17:25:50.129Z,98496.19
2018-03-03T17:28:17.551Z,98503.14
2018-03-03T17:30:44.975Z,98507.16
2018-03-03T17:33:12.401Z,98511.59
2018-03-03T17:35:39.817Z,98514.13
2018-03-03T17:38:07.287Z,98508.98
2018-03-03T17:40:34.689Z,98510.52
2018-03-03T17:43:02.104Z,98511.12
2018-03-03T17:45:29.517Z,98511.73
2018-03-03T17:48:00.408Z,98514.66
2018-03-03T17:50:27.826Z,98516.28
2018-03-03T17:52:55.583Z,98521.76
2018-03-03T17:55:23.001Z,98527.61
2018-03-03T17:57:50.418Z,98532.98
2018-03-03T18:00:17.839Z,98531.03
2018-03-03T18:03:04.573Z,98536.81
2018-03-03T18:05:31.981Z,98536.80
2018-03-03T18:07:59.650Z,98538.42
2018-03-03T18:10:34.726Z,98535.67
2018-03-03T18:13:02.134Z,98547.92
2018-03-03T18:15:29.562Z,98550.81
2018-03-03T18:17:57.025Z,98551.22
2018-03-03T18:20:24.434Z,98553.66
2018-03-03T18:22:51.864Z,98558.10
2018-03-03T18:25:19.278Z,98564.77
2018-03-03T18:27:46.719Z,98565.75
2018-03-03T18:30:14.133Z,98567.97
2018-03-03T18:32:41.546Z,98576.26
2018-03-03T18:35:26.314Z,98568.06
2018-03-03T18:37:53.738Z,98571.81
2018-03-03T18:40:21.173Z,98563.91
2018-03-03T18:42:48.582Z,98572.89
2018-03-03T18:45:15.998Z,98568.94
2018-03-03T18:50:37.389Z,98569.75
2018-03-03T18:53:04.818Z,98580.56
2018-03-03T18:55:32.246Z,98577.45
2018-03-03T18:57:59.654Z,98589.65
2018-03-03T19:00:27.087Z,98584.08
2018-03-03T19:02:54.494Z,98582.69
2018-03-03T19:05:21.925Z,98583.34
2018-03-03T19:07:49.385Z,98577.13
2018-03-03T19:10:16.842Z,98578.55
2018-03-03T19:12:44.267Z,98576.48
2018-03-03T19:15:11.673Z,98582.41
2018-03-03T19:17:39.114Z,98583.72
2018-03-03T19:20:06.526Z,98584.53
2018-03-03T19:22:33.942Z,98588.17
2018-03-03T19:25:01.367Z,98584.04
2018-03-03T19:27:28.798Z,98585.35
2018-03-03T19:29:56.222Z,98589.16
2018-03-03T19:32:23.638Z,98585.99
2018-03-03T19:34:51.054Z,98595.80
2018-03-03T19:37:18.482Z,98597.13
2018-03-03T19:39:45.889Z,98598.52
2018-03-03T19:42:13.382Z,98598.44
2018-03-03T19:44:40.794Z,98601.70
2018-03-03T19:47:08.215Z,98602.86
2018-03-03T19:49:35.713Z,98601.44
2018-03-03T19:52:03.071Z,98605.69
2018-03-03T19:54:30.491Z,98604.22
2018-03-03T19:56:57.914Z,98599.30
2018-03-03T19:59:25.330Z,98588.23
2018-03-03T20:01:52.764Z,98583.53
2018-03-03T20:04:20.186Z,98584.83
2018-03-03T20:06:47.618Z,98583.61
2018-03-03T20:09:15.032Z,98578.09
2018-03-03T20:11:42.442Z,98581.23
2018-03-03T20:14:10.005Z,98579.50
2018-03-03T20:16:37.426Z,98575.77
2018-03-03T20:19:04.859Z,98582.63
2018-03-03T20:21:32.272Z,98579.86
2018-03-03T20:23:59.705Z,98583.51
2018-03-03T20:26:27.126Z,98582.87
2018-03-03T20:28:54.550Z,98585.36
2018-03-03T20:31:21.990Z,98587.23
2018-03-03T20:33:49.411Z,98596.06
2018-03-03T20:36:16.823Z,98589.30
2018-03-03T20:38:44.250Z,98599.24
2018-03-03T20:41:11.667Z,98584.42
2018-03-03T20:43:39.099Z,98583.36
2018-03-03T20:46:06.519Z,98583.05
2018-03-03T20:48:33.947Z,98590.83
2018-03-03T20:51:01.367Z,98593.72
2018-03-03T20:53:28.787Z,98592.11
2018-03-03T20:55:56.219Z,98585.56
2018-03-03T20:58:23.639Z,98591.89
2018-03-03T21:00:51.055Z,98584.23
2018-03-03T21:03:18.482Z,98587.33
2018-03-03T21:05:45.904Z,98588.62
2018-03-03T21:08:13.327Z,98588.72
2018-03-03T21:10:40.740Z,98591.33
2018-03-03T21:13:08.169Z,98593.23
2018-03-03T21:15:35.578Z,98587.55
2018-03-03T21:18:02.989Z,98581.71
2018-03-03T21:20:30.405Z,98583.19
2018-03-03T21:22:57.826Z,98580.25
2018-03-03T21:25:25.259Z,98583.87
2018-03-03T21:27:52.675Z,98582.16
2018-03-03T21:30:20.094Z,98582.47
2018-03-03T21:32:47.510Z,98577.33
2018-03-03T21:35:14.931Z,98580.44
2018-03-03T21:37:42.358Z,98583.13
2018-03-03T21:40:09.786Z,98586.26
2018-03-03T21:42:37.276Z,98580.22
2018-03-03T21:45:04.698Z,98582.41
2018-03-03T21:47:32.114Z,98582.97
2018-03-03T21:49:59.538Z,98586.38
2018-03-03T21:52:26.962Z,98588.20
2018-03-03T21:54:54.552Z,98587.38
2018-03-03T21:57:21.977Z,98592.11
2018-03-03T21:59:49.393Z,98598.46
2018-03-03T22:02:16.833Z,98594.78
2018-03-03T22:04:44.245Z,98588.81
2018-03-03T22:07:11.661Z,98593.95
2018-03-03T22:09:39.089Z,98598.00
2018-03-03T22:12:06.501Z,98592.97
2018-03-03T22:14:33.930Z,98595.70
2018-03-03T22:17:01.347Z,98592.84
2018-03-03T22:19:28.758Z,98590.55
2018-03-03T22:21:56.193Z,98588.14
2018-03-03T22:24:23.627Z,98594.22
2018-03-03T22:26:51.054Z,98591.59
2018-03-03T22:29:18.477Z,98589.61
2018-03-03T22:31:45.964Z,98597.66
2018-03-03T22:34:13.375Z,98595.72
2018-03-03T22:36:40.802Z,98602.40
2018-03-03T22:39:08.221Z,98602.11
2018-03-03T22:41:35.639Z,98599.20
2018-03-03T22:44:03.061Z,98593.93
2018-03-03T22:46:30.481Z,98589.27
2018-03-03T22:48:57.914Z,98588.78
2018-03-03T22:51:25.326Z,98590.00
2018-03-03T22:53:52.749Z,98591.63
2018-03-03T22:56:20.174Z,98589.00
2018-03-03T22:58:47.592Z,98585.97
2018-03-03T23:01:15.031Z,98589.55
2018-03-03T23:03:42.450Z,98597.21
2018-03-03T23:06:09.866Z,98599.55
2018-03-03T23:08:37.290Z,98596.94
2018-03-03T23:11:04.706Z,98598.66
2018-03-03T23:13:32.139Z,98604.33
2018-03-03T23:15:59.563Z,98599.37
2018-03-03T23:18:26.981Z,98603.71
2018-03-03T23:20:54.410Z,98602.81
2018-03-03T23:23:21.826Z,98608.60
2018-03-03T23:25:49.250Z,98610.09
2018-03-03T23:28:16.676Z,98609.22
2018-03-03T23:30:44.093Z,98609.10
2018-03-03T23:33:11.506Z,98608.09
2018-03-03T23:35:38.937Z,98609.61
2018-03-03T23:38:06.361Z,98623.97
2018-03-03T23:40:33.781Z,98623.07
2018-03-03T23:43:01.202Z,98626.33
2018-03-03T23:45:28.622Z,98621.77
2018-03-03T23:47:56.046Z,98620.86
2018-03-03T23:50:23.474Z,98625.42
2018-03-03T23:52:50.886Z,98622.31
2018-03-03T23:55:18.312Z,98618.97
2018-03-03T23:57:45.729Z,98623.21
